sensor_id;sensor_type;location;lat;lon;timestamp;temperature;humidity
9383;DHT22;4731;49.708;10.816;2023-11-19T00:00:12;5.30;99.90
9383;DHT22;4731;49.708;10.816;2023-11-19T00:02:40;5.30;99.90
9383;DHT22;4731;49.708;10.816;2023-11-19T00:05:08;5.20;99.90
9383;DHT22;4731;49.708;10.816;2023-11-19T00:07:38;5.30;99.90
9383;DHT22;4731;49.708;10.816;2023-11-19T00:10:07;6.80;99.90
9383;DHT22;4731;49.708;10.816;2023-11-19T00:12:35;5.20;99.90
9383;DHT22;4731;49.708;10.816;2023-11-19T00:15:02;5.20;99.90
9383;DHT22;4731;49.708;10.816;2023-11-19T00:17:29;5.30;99.90
9383;DHT22;4731;49.708;10.816;2023-11-19T00:19:55;5.30;99.90
9383;DHT22;4731;49.708;10.816;2023-11-19T00:22:22;5.30;99.90
9383;DHT22;4731;49.708;10.816;2023-11-19T00:24:52;5.40;99.90
9383;DHT22;4731;49.708;10.816;2023-11-19T00:27:19;5.30;99.90
9383;DHT22;4731;49.708;10.816;2023-11-19T00:29:46;5.30;99.90
9383;DHT22;4731;49.708;10.816;2023-11-19T00:32:13;5.30;99.90
9383;DHT22;4731;49.708;10.816;2023-11-19T00:34:40;5.40;99.90
9383;DHT22;4731;49.708;10.816;2023-11-19T00:37:06;5.30;99.90
9383;DHT22;4731;49.708;10.816;2023-11-19T00:39:33;5.30;99.90
9383;DHT22;4731;49.708;10.816;2023-11-19T00:42:01;5.30;99.90
9383;DHT22;4731;49.708;10.816;2023-11-19T00:44:28;5.30;99.90
9383;DHT22;4731;49.708;10.816;2023-11-19T00:46:54;5.30;99.90
9383;DHT22;4731;49.708;10.816;2023-11-19T00:49:21;5.30;99.90
9383;DHT22;4731;49.708;10.816;2023-11-19T00:51:48;5.30;99.90
9383;DHT22;4731;49.708;10.816;2023-11-19T00:54:15;5.30;99.90
9383;DHT22;4731;49.708;10.816;2023-11-19T00:56:42;5.30;99.90
9383;DHT22;4731;49.708;10.816;2023-11-19T00:59:10;6.40;99.90
9383;DHT22;4731;49.708;10.816;2023-11-19T01:01:37;7.80;99.90
9383;DHT22;4731;49.708;10.816;2023-11-19T01:04:04;5.30;99.90
9383;DHT22;4731;49.708;10.816;2023-11-19T01:06:31;5.30;99.90
9383;DHT22;4731;49.708;10.816;2023-11-19T01:08:58;5.30;99.90
9383;DHT22;4731;49.708;10.816;2023-11-19T01:11:26;5.30;99.90
9383;DHT22;4731;49.708;10.816;2023-11-19T01:13:53;5.40;99.90
9383;DHT22;4731;49.708;10.816;2023-11-19T01:16:22;5.40;99.90
9383;DHT22;4731;49.708;10.816;2023-11-19T01:18:48;5.50;99.90
9383;DHT22;4731;49.708;10.816;2023-11-19T01:21:16;5.60;99.90
9383;DHT22;4731;49.708;10.816;2023-11-19T01:23:42;5.50;99.90
9383;DHT22;4731;49.708;10.816;2023-11-19T01:26:09;5.50;99.90
9383;DHT22;4731;49.708;10.816;2023-11-19T01:28:38;5.50;99.90
9383;DHT22;4731;49.708;10.816;2023-11-19T01:31:08;5.60;99.90
9383;DHT22;4731;49.708;10.816;2023-11-19T01:33:37;5.50;99.90
9383;DHT22;4731;49.708;10.816;2023-11-19T01:36:04;5.50;99.90
9383;DHT22;4731;49.708;10.816;2023-11-19T01:38:31;5.50;99.90
9383;DHT22;4731;49.708;10.816;2023-11-19T01:40:58;5.50;99.90
9383;DHT22;4731;49.708;10.816;2023-11-19T01:43:32;5.50;99.90
9383;DHT22;4731;49.708;10.816;2023-11-19T01:45:59;5.50;99.90
9383;DHT22;4731;49.708;10.816;2023-11-19T01:48:26;5.50;99.90
9383;DHT22;4731;49.708;10.816;2023-11-19T01:50:55;5.50;99.90
9383;DHT22;4731;49.708;10.816;2023-11-19T01:53:23;5.60;99.90
9383;DHT22;4731;49.708;10.816;2023-11-19T01:55:51;5.50;99.90
9383;DHT22;4731;49.708;10.816;2023-11-19T01:58:18;5.50;99.90
9383;DHT22;4731;49.708;10.816;2023-11-19T02:00:45;5.50;99.90
9383;DHT22;4731;49.708;10.816;2023-11-19T02:03:12;5.60;99.90
9383;DHT22;4731;49.708;10.816;2023-11-19T02:05:40;5.50;99.90
9383;DHT22;4731;49.708;10.816;2023-11-19T02:08:08;5.60;99.90
9383;DHT22;4731;49.708;10.816;2023-11-19T02:10:35;5.60;99.90
9383;DHT22;4731;49.708;10.816;2023-11-19T02:13:02;5.50;99.90
9383;DHT22;4731;49.708;10.816;2023-11-19T02:15:31;5.60;99.90
9383;DHT22;4731;49.708;10.816;2023-11-19T02:17:57;5.60;99.90
9383;DHT22;4731;49.708;10.816;2023-11-19T02:20:43;5.70;99.90
9383;DHT22;4731;49.708;10.816;2023-11-19T02:23:12;5.90;99.90
9383;DHT22;4731;49.708;10.816;2023-11-19T02:25:40;5.60;99.90
9383;DHT22;4731;49.708;10.816;2023-11-19T02:28:08;5.50;99.90
9383;DHT22;4731;49.708;10.816;2023-11-19T02:30:37;5.60;99.90
9383;DHT22;4731;49.708;10.816;2023-11-19T02:33:04;5.60;99.90
9383;DHT22;4731;49.708;10.816;2023-11-19T02:35:32;5.50;99.90
9383;DHT22;4731;49.708;10.816;2023-11-19T02:37:59;5.50;99.90
9383;DHT22;4731;49.708;10.816;2023-11-19T02:40:26;5.60;99.90
9383;DHT22;4731;49.708;10.816;2023-11-19T02:42:53;5.60;99.90
9383;DHT22;4731;49.708;10.816;2023-11-19T02:45:22;6.30;99.90
9383;DHT22;4731;49.708;10.816;2023-11-19T02:47:49;5.60;99.90
9383;DHT22;4731;49.708;10.816;2023-11-19T02:50:17;5.60;99.90
9383;DHT22;4731;49.708;10.816;2023-11-19T02:52:51;5.70;99.90
9383;DHT22;4731;49.708;10.816;2023-11-19T02:55:19;5.70;99.90
9383;DHT22;4731;49.708;10.816;2023-11-19T02:57:45;5.70;99.90
9383;DHT22;4731;49.708;10.816;2023-11-19T03:00:14;5.60;99.90
9383;DHT22;4731;49.708;10.816;2023-11-19T03:02:43;5.60;99.90
9383;DHT22;4731;49.708;10.816;2023-11-19T03:05:12;5.60;99.90
9383;DHT22;4731;49.708;10.816;2023-11-19T03:07:40;5.60;99.90
9383;DHT22;4731;49.708;10.816;2023-11-19T03:10:08;5.60;99.90
9383;DHT22;4731;49.708;10.816;2023-11-19T03:12:38;5.60;99.90
9383;DHT22;4731;49.708;10.816;2023-11-19T03:15:05;7.40;99.90
9383;DHT22;4731;49.708;10.816;2023-11-19T03:17:32;5.60;99.90
9383;DHT22;4731;49.708;10.816;2023-11-19T03:20:00;5.60;99.90
9383;DHT22;4731;49.708;10.816;2023-11-19T03:22:27;5.60;99.90
9383;DHT22;4731;49.708;10.816;2023-11-19T03:24:54;5.60;99.90
9383;DHT22;4731;49.708;10.816;2023-11-19T03:27:21;5.70;99.90
9383;DHT22;4731;49.708;10.816;2023-11-19T03:29:48;5.70;99.90
9383;DHT22;4731;49.708;10.816;2023-11-19T03:32:15;5.70;99.90
9383;DHT22;4731;49.708;10.816;2023-11-19T03:34:41;5.80;99.90
9383;DHT22;4731;49.708;10.816;2023-11-19T03:37:09;5.80;99.90
9383;DHT22;4731;49.708;10.816;2023-11-19T03:39:36;8.50;99.90
9383;DHT22;4731;49.708;10.816;2023-11-19T03:42:04;5.80;99.90
9383;DHT22;4731;49.708;10.816;2023-11-19T03:44:31;5.80;99.90
9383;DHT22;4731;49.708;10.816;2023-11-19T03:46:57;5.80;99.90
9383;DHT22;4731;49.708;10.816;2023-11-19T03:49:24;7.70;99.90
9383;DHT22;4731;49.708;10.816;2023-11-19T03:51:51;8.20;99.90
9383;DHT22;4731;49.708;10.816;2023-11-19T03:54:19;6.00;99.90
9383;DHT22;4731;49.708;10.816;2023-11-19T03:56:46;5.80;99.90
9383;DHT22;4731;49.708;10.816;2023-11-19T03:59:12;6.00;99.90
9383;DHT22;4731;49.708;10.816;2023-11-19T04:01:40;6.00;99.90
9383;DHT22;4731;49.708;10.816;2023-11-19T04:04:07;6.00;99.90
9383;DHT22;4731;49.708;10.816;2023-11-19T04:06:34;6.00;99.90
9383;DHT22;4731;49.708;10.816;2023-11-19T04:09:01;6.00;99.90
9383;DHT22;4731;49.708;10.816;2023-11-19T04:11:29;6.10;99.90
9383;DHT22;4731;49.708;10.816;2023-11-19T04:13:56;6.20;99.90
9383;DHT22;4731;49.708;10.816;2023-11-19T04:16:26;6.20;99.90
9383;DHT22;4731;49.708;10.816;2023-11-19T04:18:54;6.20;99.90
9383;DHT22;4731;49.708;10.816;2023-11-19T04:21:21;6.20;99.90
9383;DHT22;4731;49.708;10.816;2023-11-19T04:23:48;6.30;99.90
9383;DHT22;4731;49.708;10.816;2023-11-19T04:26:15;6.30;99.90
9383;DHT22;4731;49.708;10.816;2023-11-19T04:28:43;6.40;99.90
9383;DHT22;4731;49.708;10.816;2023-11-19T04:31:10;6.40;99.90
9383;DHT22;4731;49.708;10.816;2023-11-19T04:33:36;6.50;99.90
9383;DHT22;4731;49.708;10.816;2023-11-19T04:36:04;6.50;99.90
9383;DHT22;4731;49.708;10.816;2023-11-19T04:38:31;6.50;99.90
9383;DHT22;4731;49.708;10.816;2023-11-19T04:40:58;6.40;99.90
9383;DHT22;4731;49.708;10.816;2023-11-19T04:43:25;6.30;99.90
9383;DHT22;4731;49.708;10.816;2023-11-19T04:45:53;6.30;99.90
9383;DHT22;4731;49.708;10.816;2023-11-19T04:48:20;6.30;99.90
9383;DHT22;4731;49.708;10.816;2023-11-19T04:50:47;7.60;99.90
9383;DHT22;4731;49.708;10.816;2023-11-19T04:53:13;9.00;99.90
9383;DHT22;4731;49.708;10.816;2023-11-19T04:55:41;6.40;99.90
9383;DHT22;4731;49.708;10.816;2023-11-19T04:58:08;6.50;99.90
9383;DHT22;4731;49.708;10.816;2023-11-19T05:00:35;6.40;99.90
9383;DHT22;4731;49.708;10.816;2023-11-19T05:03:03;6.40;99.90
9383;DHT22;4731;49.708;10.816;2023-11-19T05:05:29;6.40;99.90
9383;DHT22;4731;49.708;10.816;2023-11-19T05:07:56;6.40;99.90
9383;DHT22;4731;49.708;10.816;2023-11-19T05:10:23;8.70;99.90
9383;DHT22;4731;49.708;10.816;2023-11-19T05:12:50;7.60;99.90
9383;DHT22;4731;49.708;10.816;2023-11-19T05:15:17;6.60;99.90
9383;DHT22;4731;49.708;10.816;2023-11-19T05:17:44;6.60;99.90
9383;DHT22;4731;49.708;10.816;2023-11-19T05:20:12;6.60;99.90
9383;DHT22;4731;49.708;10.816;2023-11-19T05:22:39;6.70;99.90
9383;DHT22;4731;49.708;10.816;2023-11-19T05:25:07;6.50;99.90
9383;DHT22;4731;49.708;10.816;2023-11-19T05:27:34;6.60;99.90
9383;DHT22;4731;49.708;10.816;2023-11-19T05:30:01;6.60;99.90
9383;DHT22;4731;49.708;10.816;2023-11-19T05:32:28;6.70;99.90
9383;DHT22;4731;49.708;10.816;2023-11-19T05:34:55;8.90;99.90
9383;DHT22;4731;49.708;10.816;2023-11-19T05:37:23;6.80;99.90
9383;DHT22;4731;49.708;10.816;2023-11-19T05:39:50;6.80;99.90
9383;DHT22;4731;49.708;10.816;2023-11-19T05:42:17;6.90;99.90
9383;DHT22;4731;49.708;10.816;2023-11-19T05:44:44;7.00;99.90
9383;DHT22;4731;49.708;10.816;2023-11-19T05:47:11;7.00;99.90
9383;DHT22;4731;49.708;10.816;2023-11-19T05:49:38;7.00;99.90
9383;DHT22;4731;49.708;10.816;2023-11-19T05:52:05;7.00;99.90
9383;DHT22;4731;49.708;10.816;2023-11-19T05:54:34;7.10;99.90
9383;DHT22;4731;49.708;10.816;2023-11-19T05:57:04;8.70;99.90
9383;DHT22;4731;49.708;10.816;2023-11-19T05:59:32;7.00;99.90
9383;DHT22;4731;49.708;10.816;2023-11-19T06:01:58;8.60;99.90
9383;DHT22;4731;49.708;10.816;2023-11-19T06:04:26;7.10;99.90
9383;DHT22;4731;49.708;10.816;2023-11-19T06:06:52;7.10;99.90
9383;DHT22;4731;49.708;10.816;2023-11-19T06:09:20;7.10;99.90
9383;DHT22;4731;49.708;10.816;2023-11-19T06:11:51;9.30;99.90
9383;DHT22;4731;49.708;10.816;2023-11-19T06:14:18;7.20;99.90
9383;DHT22;4731;49.708;10.816;2023-11-19T06:16:43;7.20;99.90
9383;DHT22;4731;49.708;10.816;2023-11-19T06:19:10;8.60;99.90
9383;DHT22;4731;49.708;10.816;2023-11-19T06:21:37;7.20;99.90
9383;DHT22;4731;49.708;10.816;2023-11-19T06:24:04;7.30;99.90
9383;DHT22;4731;49.708;10.816;2023-11-19T06:26:31;7.30;99.90
9383;DHT22;4731;49.708;10.816;2023-11-19T06:28:59;7.30;99.90
9383;DHT22;4731;49.708;10.816;2023-11-19T06:31:26;7.30;99.90
9383;DHT22;4731;49.708;10.816;2023-11-19T06:33:53;7.30;99.90
9383;DHT22;4731;49.708;10.816;2023-11-19T06:36:20;7.00;99.90
9383;DHT22;4731;49.708;10.816;2023-11-19T06:38:47;10.20;99.90
9383;DHT22;4731;49.708;10.816;2023-11-19T06:41:14;7.30;99.90
9383;DHT22;4731;49.708;10.816;2023-11-19T06:43:40;7.40;99.90
9383;DHT22;4731;49.708;10.816;2023-11-19T06:46:16;8.90;99.90
9383;DHT22;4731;49.708;10.816;2023-11-19T06:48:43;9.60;99.90
9383;DHT22;4731;49.708;10.816;2023-11-19T06:51:10;7.60;99.90
9383;DHT22;4731;49.708;10.816;2023-11-19T06:53:37;8.10;99.90
9383;DHT22;4731;49.708;10.816;2023-11-19T06:56:06;7.80;99.90
9383;DHT22;4731;49.708;10.816;2023-11-19T06:58:43;8.50;99.90
9383;DHT22;4731;49.708;10.816;2023-11-19T07:01:10;8.00;99.90
9383;DHT22;4731;49.708;10.816;2023-11-19T07:03:38;8.20;99.90
9383;DHT22;4731;49.708;10.816;2023-11-19T07:06:05;8.30;99.90
9383;DHT22;4731;49.708;10.816;2023-11-19T07:08:32;8.50;99.90
9383;DHT22;4731;49.708;10.816;2023-11-19T07:10:59;8.80;99.90
9383;DHT22;4731;49.708;10.816;2023-11-19T07:13:26;9.00;99.90
9383;DHT22;4731;49.708;10.816;2023-11-19T07:15:53;9.10;99.90
9383;DHT22;4731;49.708;10.816;2023-11-19T07:18:20;9.20;99.90
9383;DHT22;4731;49.708;10.816;2023-11-19T07:20:49;9.40;99.90
9383;DHT22;4731;49.708;10.816;2023-11-19T07:23:15;9.40;99.90
9383;DHT22;4731;49.708;10.816;2023-11-19T07:25:42;9.50;99.90
9383;DHT22;4731;49.708;10.816;2023-11-19T07:28:12;9.50;99.90
9383;DHT22;4731;49.708;10.816;2023-11-19T07:30:40;10.80;99.90
9383;DHT22;4731;49.708;10.816;2023-11-19T07:33:07;10.80;99.90
9383;DHT22;4731;49.708;10.816;2023-11-19T07:35:34;9.70;99.90
9383;DHT22;4731;49.708;10.816;2023-11-19T07:38:02;10.80;99.90
9383;DHT22;4731;49.708;10.816;2023-11-19T07:40:28;9.80;99.90
9383;DHT22;4731;49.708;10.816;2023-11-19T07:42:55;9.90;99.90
9383;DHT22;4731;49.708;10.816;2023-11-19T07:45:22;10.00;99.90
9383;DHT22;4731;49.708;10.816;2023-11-19T07:47:49;10.00;99.90
9383;DHT22;4731;49.708;10.816;2023-11-19T07:50:16;10.10;99.90
9383;DHT22;4731;49.708;10.816;2023-11-19T07:52:45;10.00;99.90
9383;DHT22;4731;49.708;10.816;2023-11-19T07:55:13;12.20;99.90
9383;DHT22;4731;49.708;10.816;2023-11-19T07:57:40;10.10;99.90
9383;DHT22;4731;49.708;10.816;2023-11-19T08:00:08;10.20;99.90
9383;DHT22;4731;49.708;10.816;2023-11-19T08:02:37;10.30;99.90
9383;DHT22;4731;49.708;10.816;2023-11-19T08:05:04;10.30;99.90
9383;DHT22;4731;49.708;10.816;2023-11-19T08:07:31;10.30;99.90
9383;DHT22;4731;49.708;10.816;2023-11-19T08:09:58;10.30;99.90
9383;DHT22;4731;49.708;10.816;2023-11-19T08:12:26;10.30;99.90
9383;DHT22;4731;49.708;10.816;2023-11-19T08:14:53;10.30;99.90
9383;DHT22;4731;49.708;10.816;2023-11-19T08:17:20;10.40;99.90
9383;DHT22;4731;49.708;10.816;2023-11-19T08:19:48;10.30;99.90
9383;DHT22;4731;49.708;10.816;2023-11-19T08:22:15;10.40;99.90
9383;DHT22;4731;49.708;10.816;2023-11-19T08:24:42;10.40;99.90
9383;DHT22;4731;49.708;10.816;2023-11-19T08:27:09;10.50;99.90
9383;DHT22;4731;49.708;10.816;2023-11-19T08:29:37;10.40;99.90
9383;DHT22;4731;49.708;10.816;2023-11-19T08:32:05;10.40;99.90
9383;DHT22;4731;49.708;10.816;2023-11-19T08:34:32;10.40;99.90
9383;DHT22;4731;49.708;10.816;2023-11-19T08:37:00;10.40;99.90
9383;DHT22;4731;49.708;10.816;2023-11-19T08:39:27;10.50;99.90
9383;DHT22;4731;49.708;10.816;2023-11-19T08:41:56;12.70;99.90
9383;DHT22;4731;49.708;10.816;2023-11-19T08:44:23;10.50;99.90
9383;DHT22;4731;49.708;10.816;2023-11-19T08:46:52;13.00;99.90
9383;DHT22;4731;49.708;10.816;2023-11-19T08:49:18;11.30;99.90
9383;DHT22;4731;49.708;10.816;2023-11-19T08:51:45;11.70;99.90
9383;DHT22;4731;49.708;10.816;2023-11-19T08:54:12;10.60;99.90
9383;DHT22;4731;49.708;10.816;2023-11-19T08:56:40;11.40;99.90
9383;DHT22;4731;49.708;10.816;2023-11-19T08:59:07;10.70;99.90
9383;DHT22;4731;49.708;10.816;2023-11-19T09:01:36;10.80;99.90
9383;DHT22;4731;49.708;10.816;2023-11-19T09:08:59;10.90;99.90
9383;DHT22;4731;49.708;10.816;2023-11-19T09:11:28;11.70;99.90
9383;DHT22;4731;49.708;10.816;2023-11-19T09:13:55;11.00;99.90
9383;DHT22;4731;49.708;10.816;2023-11-19T09:16:22;12.80;99.90
9383;DHT22;4731;49.708;10.816;2023-11-19T09:18:49;11.20;99.90
9383;DHT22;4731;49.708;10.816;2023-11-19T09:21:17;11.50;99.90
9383;DHT22;4731;49.708;10.816;2023-11-19T09:23:44;12.10;99.90
9383;DHT22;4731;49.708;10.816;2023-11-19T09:26:13;12.60;99.90
9383;DHT22;4731;49.708;10.816;2023-11-19T09:28:40;14.20;99.90
9383;DHT22;4731;49.708;10.816;2023-11-19T09:31:13;14.00;99.90
9383;DHT22;4731;49.708;10.816;2023-11-19T09:33:40;12.30;99.90
9383;DHT22;4731;49.708;10.816;2023-11-19T09:36:07;12.80;99.90
9383;DHT22;4731;49.708;10.816;2023-11-19T09:38:35;12.50;99.90
9383;DHT22;4731;49.708;10.816;2023-11-19T09:41:04;12.30;99.90
9383;DHT22;4731;49.708;10.816;2023-11-19T09:43:34;12.30;99.90
9383;DHT22;4731;49.708;10.816;2023-11-19T09:46:05;12.30;99.90
9383;DHT22;4731;49.708;10.816;2023-11-19T09:48:33;12.20;99.90
9383;DHT22;4731;49.708;10.816;2023-11-19T09:51:00;12.30;99.90
9383;DHT22;4731;49.708;10.816;2023-11-19T09:53:27;15.20;99.90
9383;DHT22;4731;49.708;10.816;2023-11-19T09:55:56;13.70;99.90
9383;DHT22;4731;49.708;10.816;2023-11-19T09:58:22;13.10;99.90
9383;DHT22;4731;49.708;10.816;2023-11-19T10:00:50;14.00;99.90
9383;DHT22;4731;49.708;10.816;2023-11-19T10:03:17;14.80;99.90
9383;DHT22;4731;49.708;10.816;2023-11-19T10:05:44;13.20;99.90
9383;DHT22;4731;49.708;10.816;2023-11-19T10:08:11;13.50;99.90
9383;DHT22;4731;49.708;10.816;2023-11-19T10:10:39;13.00;99.90
9383;DHT22;4731;49.708;10.816;2023-11-19T10:13:07;14.40;99.90
9383;DHT22;4731;49.708;10.816;2023-11-19T10:15:36;14.10;99.90
9383;DHT22;4731;49.708;10.816;2023-11-19T10:18:03;15.20;99.90
9383;DHT22;4731;49.708;10.816;2023-11-19T10:20:35;16.40;99.90
9383;DHT22;4731;49.708;10.816;2023-11-19T10:23:02;16.60;99.90
9383;DHT22;4731;49.708;10.816;2023-11-19T10:25:29;15.70;99.90
9383;DHT22;4731;49.708;10.816;2023-11-19T10:27:57;16.20;99.90
9383;DHT22;4731;49.708;10.816;2023-11-19T10:30:26;16.00;99.90
9383;DHT22;4731;49.708;10.816;2023-11-19T10:33:07;16.70;99.90
9383;DHT22;4731;49.708;10.816;2023-11-19T10:35:35;15.30;99.90
9383;DHT22;4731;49.708;10.816;2023-11-19T10:38:13;14.80;99.90
9383;DHT22;4731;49.708;10.816;2023-11-19T10:40:41;15.80;99.90
9383;DHT22;4731;49.708;10.816;2023-11-19T10:43:08;14.90;99.90
9383;DHT22;4731;49.708;10.816;2023-11-19T10:45:36;17.90;99.90
9383;DHT22;4731;49.708;10.816;2023-11-19T10:48:05;17.40;99.90
9383;DHT22;4731;49.708;10.816;2023-11-19T10:50:33;14.70;99.90
9383;DHT22;4731;49.708;10.816;2023-11-19T10:53:00;15.90;99.90
9383;DHT22;4731;49.708;10.816;2023-11-19T10:55:28;14.40;99.90
9383;DHT22;4731;49.708;10.816;2023-11-19T10:57:59;14.00;99.90
9383;DHT22;4731;49.708;10.816;2023-11-19T11:00:27;14.60;99.90
9383;DHT22;4731;49.708;10.816;2023-11-19T11:03:00;14.50;99.90
9383;DHT22;4731;49.708;10.816;2023-11-19T11:05:27;13.60;99.90
9383;DHT22;4731;49.708;10.816;2023-11-19T11:07:56;13.90;99.90
9383;DHT22;4731;49.708;10.816;2023-11-19T11:10:25;13.60;99.90
9383;DHT22;4731;49.708;10.816;2023-11-19T11:12:52;16.30;99.90
9383;DHT22;4731;49.708;10.816;2023-11-19T11:15:25;13.70;99.90
9383;DHT22;4731;49.708;10.816;2023-11-19T11:17:56;14.40;99.90
9383;DHT22;4731;49.708;10.816;2023-11-19T11:20:25;16.70;99.90
9383;DHT22;4731;49.708;10.816;2023-11-19T11:23:06;15.20;99.90
9383;DHT22;4731;49.708;10.816;2023-11-19T11:25:44;15.60;99.90
9383;DHT22;4731;49.708;10.816;2023-11-19T11:28:21;15.70;99.90
9383;DHT22;4731;49.708;10.816;2023-11-19T11:34:15;14.90;99.90
9383;DHT22;4731;49.708;10.816;2023-11-19T11:36:53;15.00;99.90
9383;DHT22;4731;49.708;10.816;2023-11-19T11:39:22;15.60;99.90
9383;DHT22;4731;49.708;10.816;2023-11-19T11:42:33;17.00;99.90
9383;DHT22;4731;49.708;10.816;2023-11-19T11:45:00;15.80;99.90
9383;DHT22;4731;49.708;10.816;2023-11-19T11:50:30;14.90;99.90
9383;DHT22;4731;49.708;10.816;2023-11-19T11:53:19;14.50;99.90
9383;DHT22;4731;49.708;10.816;2023-11-19T11:55:56;14.80;99.90
9383;DHT22;4731;49.708;10.816;2023-11-19T11:58:32;13.70;99.90
9383;DHT22;4731;49.708;10.816;2023-11-19T12:01:01;15.70;99.90
9383;DHT22;4731;49.708;10.816;2023-11-19T12:03:29;13.30;99.90
9383;DHT22;4731;49.708;10.816;2023-11-19T12:05:58;12.90;99.90
9383;DHT22;4731;49.708;10.816;2023-11-19T12:08:26;13.60;99.90
9383;DHT22;4731;49.708;10.816;2023-11-19T12:10:55;13.90;99.90
9383;DHT22;4731;49.708;10.816;2023-11-19T12:13:23;12.60;99.90
9383;DHT22;4731;49.708;10.816;2023-11-19T12:16:09;12.80;99.90
9383;DHT22;4731;49.708;10.816;2023-11-19T12:18:39;13.30;99.90
9383;DHT22;4731;49.708;10.816;2023-11-19T12:21:08;13.10;99.90
9383;DHT22;4731;49.708;10.816;2023-11-19T12:23:44;13.20;99.90
9383;DHT22;4731;49.708;10.816;2023-11-19T12:26:21;13.20;99.90
9383;DHT22;4731;49.708;10.816;2023-11-19T12:29:00;12.90;99.90
9383;DHT22;4731;49.708;10.816;2023-11-19T12:31:29;14.40;99.90
9383;DHT22;4731;49.708;10.816;2023-11-19T12:33:56;16.00;99.90
9383;DHT22;4731;49.708;10.816;2023-11-19T12:36:24;15.30;99.90
9383;DHT22;4731;49.708;10.816;2023-11-19T12:38:51;15.90;99.90
9383;DHT22;4731;49.708;10.816;2023-11-19T12:41:18;18.20;99.90
9383;DHT22;4731;49.708;10.816;2023-11-19T12:43:47;19.90;99.90
9383;DHT22;4731;49.708;10.816;2023-11-19T12:46:18;19.90;99.90
9383;DHT22;4731;49.708;10.816;2023-11-19T12:48:45;20.80;99.90
9383;DHT22;4731;49.708;10.816;2023-11-19T12:51:12;20.70;99.90
9383;DHT22;4731;49.708;10.816;2023-11-19T12:53:49;16.80;99.90
9383;DHT22;4731;49.708;10.816;2023-11-19T12:56:18;15.50;99.90
9383;DHT22;4731;49.708;10.816;2023-11-19T12:58:45;14.80;99.90
9383;DHT22;4731;49.708;10.816;2023-11-19T13:01:16;15.10;99.90
9383;DHT22;4731;49.708;10.816;2023-11-19T13:03:43;18.50;99.90
9383;DHT22;4731;49.708;10.816;2023-11-19T13:06:11;17.70;99.90
9383;DHT22;4731;49.708;10.816;2023-11-19T13:08:39;17.30;99.90
9383;DHT22;4731;49.708;10.816;2023-11-19T13:11:08;16.40;99.90
9383;DHT22;4731;49.708;10.816;2023-11-19T13:13:59;16.20;99.90
9383;DHT22;4731;49.708;10.816;2023-11-19T13:16:27;16.80;99.90
9383;DHT22;4731;49.708;10.816;2023-11-19T13:18:54;14.30;99.90
9383;DHT22;4731;49.708;10.816;2023-11-19T13:21:20;15.00;99.90
9383;DHT22;4731;49.708;10.816;2023-11-19T13:23:47;13.60;99.90
9383;DHT22;4731;49.708;10.816;2023-11-19T13:26:15;14.40;99.90
9383;DHT22;4731;49.708;10.816;2023-11-19T13:28:42;13.30;99.90
9383;DHT22;4731;49.708;10.816;2023-11-19T13:31:09;14.10;99.90
9383;DHT22;4731;49.708;10.816;2023-11-19T13:33:36;13.70;99.90
9383;DHT22;4731;49.708;10.816;2023-11-19T13:36:03;14.30;99.90
9383;DHT22;4731;49.708;10.816;2023-11-19T13:38:33;12.80;99.90
9383;DHT22;4731;49.708;10.816;2023-11-19T13:41:00;14.10;99.90
9383;DHT22;4731;49.708;10.816;2023-11-19T13:43:29;12.70;99.90
9383;DHT22;4731;49.708;10.816;2023-11-19T13:45:56;12.60;99.90
9383;DHT22;4731;49.708;10.816;2023-11-19T13:48:23;13.10;99.90
9383;DHT22;4731;49.708;10.816;2023-11-19T13:50:52;14.80;99.90
9383;DHT22;4731;49.708;10.816;2023-11-19T13:53:19;12.40;99.90
9383;DHT22;4731;49.708;10.816;2023-11-19T13:55:46;12.30;99.90
9383;DHT22;4731;49.708;10.816;2023-11-19T13:58:13;12.20;99.90
9383;DHT22;4731;49.708;10.816;2023-11-19T14:00:41;12.30;99.90
9383;DHT22;4731;49.708;10.816;2023-11-19T14:03:09;12.30;99.90
9383;DHT22;4731;49.708;10.816;2023-11-19T14:05:36;12.40;99.90
9383;DHT22;4731;49.708;10.816;2023-11-19T14:08:03;14.50;99.90
9383;DHT22;4731;49.708;10.816;2023-11-19T14:10:37;12.80;99.90
9383;DHT22;4731;49.708;10.816;2023-11-19T14:13:04;13.90;99.90
9383;DHT22;4731;49.708;10.816;2023-11-19T14:15:31;13.60;99.90
9383;DHT22;4731;49.708;10.816;2023-11-19T14:17:59;13.40;99.90
9383;DHT22;4731;49.708;10.816;2023-11-19T14:20:26;12.90;99.90
9383;DHT22;4731;49.708;10.816;2023-11-19T14:22:52;13.20;99.90
9383;DHT22;4731;49.708;10.816;2023-11-19T14:25:19;12.50;99.90
9383;DHT22;4731;49.708;10.816;2023-11-19T14:27:47;12.70;99.90
9383;DHT22;4731;49.708;10.816;2023-11-19T14:30:14;12.30;99.90
9383;DHT22;4731;49.708;10.816;2023-11-19T14:32:42;13.90;99.90
9383;DHT22;4731;49.708;10.816;2023-11-19T14:35:12;12.20;99.90
9383;DHT22;4731;49.708;10.816;2023-11-19T14:37:39;12.20;99.90
9383;DHT22;4731;49.708;10.816;2023-11-19T14:40:07;12.20;99.90
9383;DHT22;4731;49.708;10.816;2023-11-19T14:42:36;12.10;99.90
9383;DHT22;4731;49.708;10.816;2023-11-19T14:45:05;13.80;99.90
9383;DHT22;4731;49.708;10.816;2023-11-19T14:47:32;12.00;99.90
9383;DHT22;4731;49.708;10.816;2023-11-19T14:49:59;14.20;99.90
9383;DHT22;4731;49.708;10.816;2023-11-19T14:52:27;14.10;99.90
9383;DHT22;4731;49.708;10.816;2023-11-19T14:54:54;11.70;99.90
9383;DHT22;4731;49.708;10.816;2023-11-19T14:57:22;13.80;99.90
9383;DHT22;4731;49.708;10.816;2023-11-19T14:59:48;12.00;99.90
9383;DHT22;4731;49.708;10.816;2023-11-19T15:02:15;12.50;99.90
9383;DHT22;4731;49.708;10.816;2023-11-19T15:04:42;11.80;99.90
9383;DHT22;4731;49.708;10.816;2023-11-19T15:07:09;11.40;99.90
9383;DHT22;4731;49.708;10.816;2023-11-19T15:09:38;12.30;99.90
9383;DHT22;4731;49.708;10.816;2023-11-19T15:12:05;12.60;99.90
9383;DHT22;4731;49.708;10.816;2023-11-19T15:14:32;11.40;99.90
9383;DHT22;4731;49.708;10.816;2023-11-19T15:16:59;12.70;99.90
9383;DHT22;4731;49.708;10.816;2023-11-19T15:19:26;12.10;99.90
9383;DHT22;4731;49.708;10.816;2023-11-19T15:21:53;11.40;99.90
9383;DHT22;4731;49.708;10.816;2023-11-19T15:24:20;11.60;99.90
9383;DHT22;4731;49.708;10.816;2023-11-19T15:26:49;11.40;99.90
9383;DHT22;4731;49.708;10.816;2023-11-19T15:29:16;11.20;99.90
9383;DHT22;4731;49.708;10.816;2023-11-19T15:31:43;11.90;99.90
9383;DHT22;4731;49.708;10.816;2023-11-19T15:34:10;11.20;99.90
9383;DHT22;4731;49.708;10.816;2023-11-19T15:36:36;11.20;99.90
9383;DHT22;4731;49.708;10.816;2023-11-19T15:39:04;11.10;99.90
9383;DHT22;4731;49.708;10.816;2023-11-19T15:41:31;12.50;99.90
9383;DHT22;4731;49.708;10.816;2023-11-19T15:44:00;13.80;99.90
9383;DHT22;4731;49.708;10.816;2023-11-19T15:46:29;10.90;99.90
9383;DHT22;4731;49.708;10.816;2023-11-19T15:48:55;10.90;99.90
9383;DHT22;4731;49.708;10.816;2023-11-19T15:51:22;10.90;99.90
9383;DHT22;4731;49.708;10.816;2023-11-19T15:53:49;12.80;99.90
9383;DHT22;4731;49.708;10.816;2023-11-19T15:56:16;11.90;99.90
9383;DHT22;4731;49.708;10.816;2023-11-19T15:58:43;12.50;99.90
9383;DHT22;4731;49.708;10.816;2023-11-19T16:01:11;10.80;99.90
9383;DHT22;4731;49.708;10.816;2023-11-19T16:03:38;10.70;99.90
9383;DHT22;4731;49.708;10.816;2023-11-19T16:06:05;10.80;99.90
9383;DHT22;4731;49.708;10.816;2023-11-19T16:08:32;10.80;99.90